Time;durP1;ratioP1;P1;durP2;ratioP2;P2;SDS_P1;SDS_P2;PMS_P1;PMS_P2;Temp;Humidity;BMP_temperature;BMP_pressure;BME280_temperature;BME280_humidity;BME280_pressure;Samples;Min_cycle;Max_cycle;Signal;HPM_P1;HPM_P2
2022/01/12 00:02:00;;;;;;;;;;;;;;;-3.35;93.36;101600.72;5023480;28;19956;-87
2022/01/12 00:04:25;;;;;;;;;;;;;;;-3.39;92.94;101611.41;4996805;28;19917;-87
2022/01/12 00:06:50;;;;;;;;;;;;;;;-3.41;93.71;101620.97;5005512;28;20299;-87
2022/01/12 00:09:16;;;;;;;;;;;;;;;-3.39;93.38;101618.72;4977575;28;19918;-87
2022/01/12 00:11:41;;;;;;;;;;;;;;;-3.43;93.57;101625.88;4994558;28;19935;-87
2022/01/12 00:14:06;;;;;;;;;;;;;;;-3.44;93.76;101622.38;5000409;28;20383;-87
2022/01/12 00:16:32;;;;;;;;;;;;;;;-3.43;93.73;101626.69;5013302;28;20004;-90
2022/01/12 00:18:57;;;;;;;;;;;;;;;-3.44;93.88;101624.28;4990654;28;19975;-92
2022/01/12 00:21:23;;;;;;;;;;;;;;;-3.45;93.78;101617.25;4991523;28;19921;-91
2022/01/12 00:23:48;;;;;;;;;;;;;;;-3.46;94.10;101637.34;5009312;28;20282;-92
2022/01/12 00:34:32;;;;;;;;;;;;;;;-3.47;93.93;101638.44;5011124;28;20366;-91
2022/01/12 00:36:57;;;;;;;;;;;;;;;-3.50;93.90;101639.06;5012100;28;19920;-91
2022/01/12 00:39:23;;;;;;;;;;;;;;;-3.51;94.15;101645.59;4998980;28;19924;-89
2022/01/12 00:41:48;;;;;;;;;;;;;;;-3.52;94.02;101660.28;4983888;28;19917;-89
2022/01/12 00:44:22;;;;;;;;;;;;;;;-3.54;94.41;101651.63;4975922;28;19925;-90
2022/01/12 00:46:49;;;;;;;;;;;;;;;-3.54;94.48;101654.34;5001349;28;19917;-88
2022/01/12 00:49:15;;;;;;;;;;;;;;;-3.56;94.66;101654.66;4995410;28;20362;-89
2022/01/12 00:51:40;;;;;;;;;;;;;;;-3.57;94.57;101652.22;5007255;28;19917;-91
2022/01/12 00:54:08;;;;;;;;;;;;;;;-3.59;94.63;101655.25;4975671;28;19917;-89
2022/01/12 00:56:36;;;;;;;;;;;;;;;-3.59;94.71;101654.44;5011818;28;19981;-89
2022/01/12 00:59:02;;;;;;;;;;;;;;;-3.61;94.47;101656.66;4983174;28;19925;-91
2022/01/12 01:01:27;;;;;;;;;;;;;;;-3.66;94.87;101660.28;4988474;28;19917;-90
2022/01/12 01:03:53;;;;;;;;;;;;;;;-3.65;95.00;101650.22;5028387;28;20012;-91
2022/01/12 01:06:20;;;;;;;;;;;;;;;-3.66;94.86;101660.28;4998249;28;20367;-90
2022/01/12 01:08:48;;;;;;;;;;;;;;;-3.67;95.00;101652.44;5014938;28;19916;-90
2022/01/12 01:11:15;;;;;;;;;;;;;;;-3.67;95.05;101647.00;4997550;28;19917;-91
2022/01/12 01:14:22;;;;;;;;;;;;;;;-3.69;95.24;101660.06;5014943;28;19976;-91
2022/01/12 01:27:18;;;;;;;;;;;;;;;-3.72;95.26;101655.28;4997234;28;20015;-91
2022/01/12 01:29:47;;;;;;;;;;;;;;;-3.75;95.18;101659.38;5024842;28;20009;-90
2022/01/12 01:32:13;;;;;;;;;;;;;;;-3.76;95.47;101657.78;4998382;28;19920;-90
2022/01/12 01:34:46;;;;;;;;;;;;;;;-3.76;95.22;101655.84;4996935;28;19924;-86
2022/01/12 01:37:11;;;;;;;;;;;;;;;-3.76;95.29;101655.84;4994799;28;19921;-86
2022/01/12 01:39:37;;;;;;;;;;;;;;;-3.77;95.27;101653.47;5011621;28;19939;-86
2022/01/12 01:42:07;;;;;;;;;;;;;;;-3.83;95.13;101644.59;4994709;28;19925;-86
2022/01/12 01:55:19;;;;;;;;;;;;;;;-3.89;95.74;101656.66;4997591;28;19976;-86
2022/01/12 01:57:45;;;;;;;;;;;;;;;-3.93;95.83;101655.66;5007611;28;19917;-86
2022/01/12 02:00:12;;;;;;;;;;;;;;;-3.93;95.93;101654.84;5013905;28;19971;-87
2022/01/12 02:02:50;;;;;;;;;;;;;;;-3.96;96.09;101661.66;5014677;28;20016;-86
2022/01/12 02:05:16;;;;;;;;;;;;;;;-3.99;96.25;101662.28;4997349;28;19963;-86
2022/01/12 02:07:41;;;;;;;;;;;;;;;-4.02;96.14;101662.88;5026119;28;19917;-86
2022/01/12 02:10:08;;;;;;;;;;;;;;;-4.02;96.44;101665.59;4997510;28;19924;-87
2022/01/12 02:12:39;;;;;;;;;;;;;;;-4.04;96.63;101665.06;4995339;28;19918;-91
2022/01/12 02:15:11;;;;;;;;;;;;;;;-4.09;96.38;101662.47;5015434;28;19917;-90
2022/01/12 02:17:42;;;;;;;;;;;;;;;-4.08;96.76;101664.06;4997485;28;20992;-90
2022/01/12 02:20:26;;;;;;;;;;;;;;;-4.08;96.60;101664.06;5013840;28;19928;-90
2022/01/12 02:36:44;;;;;;;;;;;;;;;-4.16;96.76;101651.19;5005721;28;19924;-90
2022/01/12 02:41:53;;;;;;;;;;;;;;;-4.10;96.90;101660.88;5028732;28;19921;-90
2022/01/12 02:50:57;;;;;;;;;;;;;;;-4.13;96.78;101657.94;5014816;28;19917;-90
2022/01/12 02:55:26;;;;;;;;;;;;;;;-4.15;96.88;101669.06;5013865;28;19924;-90
2022/01/12 02:57:52;;;;;;;;;;;;;;;-4.15;96.79;101663.66;5013213;28;19917;-91
2022/01/12 03:00:19;;;;;;;;;;;;;;;-4.17;96.87;101671.31;5014073;28;20293;-91
2022/01/12 03:02:50;;;;;;;;;;;;;;;-4.20;96.82;101673.81;4987479;28;20303;-92
2022/01/12 03:05:32;;;;;;;;;;;;;;;-4.21;96.81;101670.28;5011900;28;20012;-91
2022/01/12 03:08:02;;;;;;;;;;;;;;;-4.23;97.04;101675.19;5010799;28;19917;-87
2022/01/12 03:10:28;;;;;;;;;;;;;;;-4.19;97.32;101675.38;4980535;28;19922;-91
2022/01/12 03:12:54;;;;;;;;;;;;;;;-4.19;97.17;101669.97;4999366;28;19921;-90
2022/01/12 03:15:19;;;;;;;;;;;;;;;-4.20;97.27;101671.09;4994288;28;20390;-92
2022/01/12 03:17:44;;;;;;;;;;;;;;;-4.20;97.07;101677.28;4994940;28;19918;-91
2022/01/12 03:20:10;;;;;;;;;;;;;;;-4.22;96.94;101676.81;4974184;28;20421;-91
2022/01/12 03:22:36;;;;;;;;;;;;;;;-4.25;97.10;101680.94;4989787;28;20063;-92
2022/01/12 03:25:01;;;;;;;;;;;;;;;-4.24;97.33;101682.50;4993795;28;19924;-90
2022/01/12 03:27:29;;;;;;;;;;;;;;;-4.22;97.27;101684.94;4977760;28;19917;-87
2022/01/12 03:29:56;;;;;;;;;;;;;;;-4.25;97.00;101696.38;4990182;28;19946;-87
2022/01/12 03:32:31;;;;;;;;;;;;;;;-4.28;97.46;101696.94;4987006;28;20485;-87
2022/01/12 03:35:06;;;;;;;;;;;;;;;-4.27;97.40;101695.84;4975324;28;19921;-87
2022/01/12 03:38:19;;;;;;;;;;;;;;;-4.27;97.24;101696.66;5004374;28;19918;-87
2022/01/12 03:40:29;;;;;;;;;;;;;;;-4.27;97.08;101699.38;4981442;28;19918;-87
2022/01/12 03:42:55;;;;;;;;;;;;;;;-4.30;96.99;101704.56;4976316;28;19924;-86
2022/01/12 03:45:21;;;;;;;;;;;;;;;-4.27;97.30;101703.97;4977543;28;20016;-87
2022/01/12 03:47:46;;;;;;;;;;;;;;;-4.27;96.94;101698.56;4977024;28;19917;-86
2022/01/12 03:50:12;;;;;;;;;;;;;;;-4.30;96.88;101699.16;4975385;28;20443;-86
2022/01/12 03:52:38;;;;;;;;;;;;;;;-4.33;97.26;101699.75;4987721;28;20421;-87
2022/01/12 03:55:04;;;;;;;;;;;;;;;-4.32;97.12;101702.16;4985675;28;19921;-87
2022/01/12 03:57:29;;;;;;;;;;;;;;;-4.31;96.94;101692.13;4986959;28;19917;-87
2022/01/12 03:59:54;;;;;;;;;;;;;;;-4.31;97.19;101694.84;5007138;28;19959;-87
2022/01/12 04:02:20;;;;;;;;;;;;;;;-4.34;96.81;101681.88;4979566;28;20362;-86
2022/01/12 04:10:14;;;;;;;;;;;;;;;-4.34;96.66;101682.69;4984703;28;19924;-91
2022/01/12 04:12:40;;;;;;;;;;;;;;;-4.38;96.58;101687.09;4974440;28;19924;-91
2022/01/12 04:15:06;;;;;;;;;;;;;;;-4.42;97.19;101688.78;5014980;28;19918;-92
2022/01/12 04:17:31;;;;;;;;;;;;;;;-4.44;97.41;101687.47;4981381;28;19917;-90
2022/01/12 04:19:57;;;;;;;;;;;;;;;-4.45;97.58;101691.28;4981267;28;20012;-92
2022/01/12 04:25:08;;;;;;;;;;;;;;;-4.52;97.43;101685.44;4998193;28;19924;-92
2022/01/12 04:27:35;;;;;;;;;;;;;;;-4.54;97.74;101696.59;4998944;28;19917;-91
2022/01/12 04:30:01;;;;;;;;;;;;;;;-4.56;97.85;101689.84;4998292;28;19924;-91
2022/01/12 04:32:30;;;;;;;;;;;;;;;-4.57;97.36;101688.25;5017089;28;19917;-92
2022/01/12 04:34:55;;;;;;;;;;;;;;;-4.61;97.85;101693.44;4983279;28;19927;-92
2022/01/12 04:37:20;;;;;;;;;;;;;;;-4.61;98.06;101687.22;5016097;28;20012;-92
2022/01/12 04:39:46;;;;;;;;;;;;;;;-4.63;98.05;101698.34;4998982;28;20441;-92
2022/01/12 04:42:11;;;;;;;;;;;;;;;-4.64;97.99;101693.22;4998549;28;20279;-91
2022/01/12 04:44:44;;;;;;;;;;;;;;;-4.65;98.32;101697.03;4978504;28;20371;-91
2022/01/12 04:47:16;;;;;;;;;;;;;;;-4.66;98.37;101690.81;4982967;28;19979;-91
2022/01/12 04:52:11;;;;;;;;;;;;;;;-4.74;97.90;101695.00;4993229;28;20393;-91
2022/01/12 04:54:37;;;;;;;;;;;;;;;-4.75;98.17;101696.09;5014078;28;19917;-92
2022/01/12 04:57:02;;;;;;;;;;;;;;;-4.78;97.76;101693.97;5013711;28;19917;-91
2022/01/12 04:59:29;;;;;;;;;;;;;;;-4.78;98.15;101701.28;4984509;28;19917;-91
2022/01/12 05:01:59;;;;;;;;;;;;;;;-4.83;98.09;101707.59;4993530;28;19925;-92
2022/01/12 05:07:30;;;;;;;;;;;;;;;-4.88;97.92;101714.97;4994766;28;19928;-91
2022/01/12 05:12:51;;;;;;;;;;;;;;;-4.92;98.12;101713.94;5016510;28;19917;-91
2022/01/12 05:15:25;;;;;;;;;;;;;;;-4.92;98.23;101712.03;4993834;28;19972;-91
2022/01/12 05:17:51;;;;;;;;;;;;;;;-4.94;98.59;101706.13;4997043;28;19944;-91
2022/01/12 05:20:16;;;;;;;;;;;;;;;-4.93;98.63;101707.72;5011514;28;20387;-91
2022/01/12 05:22:42;;;;;;;;;;;;;;;-4.91;98.58;101693.91;5013765;28;19939;-91
2022/01/12 05:25:08;;;;;;;;;;;;;;;-4.91;98.50;101700.13;4983110;28;19917;-92
2022/01/12 05:27:34;;;;;;;;;;;;;;;-4.90;98.44;101704.44;5007955;28;19988;-91
2022/01/12 05:30:00;;;;;;;;;;;;;;;-4.90;98.67;101715.28;5011487;28;20374;-91
2022/01/12 05:32:27;;;;;;;;;;;;;;;-4.91;97.98;101707.44;5006135;28;19933;-90
2022/01/12 05:35:00;;;;;;;;;;;;;;;-4.92;98.44;101714.75;4992307;28;19918;-92
2022/01/12 05:37:26;;;;;;;;;;;;;;;-4.91;98.50;101721.78;4996870;28;19924;-91
2022/01/12 05:39:52;;;;;;;;;;;;;;;-4.95;98.57;101725.34;4989571;28;20016;-91
2022/01/12 05:42:17;;;;;;;;;;;;;;;-4.92;98.63;101719.34;5010671;28;20011;-92
2022/01/12 05:44:43;;;;;;;;;;;;;;;-4.91;98.90;101720.97;5000558;28;19917;-93
2022/01/12 05:47:19;;;;;;;;;;;;;;;-4.90;98.61;101728.00;4994353;28;19976;-91
2022/01/12 05:49:45;;;;;;;;;;;;;;;-4.92;98.58;101727.47;5010523;28;20346;-91
2022/01/12 05:52:19;;;;;;;;;;;;;;;-4.89;98.95;101729.63;4996386;28;19921;-91
2022/01/12 05:54:44;;;;;;;;;;;;;;;-4.89;98.42;101732.31;5012119;28;19917;-88
2022/01/12 05:57:10;;;;;;;;;;;;;;;-4.89;98.67;101733.09;5008981;28;20349;-92
2022/01/12 05:59:35;;;;;;;;;;;;;;;-4.87;98.92;101736.34;5004666;28;19929;-87
2022/01/12 06:02:02;;;;;;;;;;;;;;;-4.86;98.64;101735.25;5010957;28;19971;-86
2022/01/12 06:04:28;;;;;;;;;;;;;;;-4.86;98.89;101735.25;4998316;28;19968;-86
2022/01/12 06:06:56;;;;;;;;;;;;;;;-4.86;98.45;101745.25;4996199;28;19948;-85
2022/01/12 06:09:22;;;;;;;;;;;;;;;-4.86;98.61;101751.50;5012982;28;19917;-86
2022/01/12 06:11:48;;;;;;;;;;;;;;;-4.87;98.40;101749.88;5013543;28;20346;-85
2022/01/12 06:14:18;;;;;;;;;;;;;;;-4.89;98.68;101760.16;5005089;28;19967;-86
2022/01/12 06:16:44;;;;;;;;;;;;;;;-4.89;98.21;101756.69;5024981;28;19932;-85
2022/01/12 06:19:09;;;;;;;;;;;;;;;-4.90;98.94;101761.28;5012437;28;20433;-85
2022/01/12 06:21:46;;;;;;;;;;;;;;;-4.93;98.11;101767.25;5012311;28;19956;-85
2022/01/12 06:24:16;;;;;;;;;;;;;;;-4.93;98.96;101767.25;5018925;28;19917;-85
2022/01/12 06:26:43;;;;;;;;;;;;;;;-4.93;99.32;101767.25;4993064;28;19917;-85
2022/01/12 06:31:34;;;;;;;;;;;;;;;-4.95;98.90;101774.88;5031390;28;19917;-85
2022/01/12 06:33:59;;;;;;;;;;;;;;;-4.98;98.54;101780.88;5012883;28;19924;-85
2022/01/12 06:36:26;;;;;;;;;;;;;;;-5.01;98.84;101784.16;5011539;28;19955;-85
2022/01/12 06:38:51;;;;;;;;;;;;;;;-5.05;99.07;101780.41;5026835;28;19927;-92
2022/01/12 06:41:17;;;;;;;;;;;;;;;-5.05;98.58;101780.41;4994271;28;19920;-92
2022/01/12 06:43:45;;;;;;;;;;;;;;;-5.07;98.59;101776.41;4991914;28;19917;-91
2022/01/12 06:46:11;;;;;;;;;;;;;;;-5.07;98.92;101771.78;5007293;28;19925;-89
2022/01/12 06:48:37;;;;;;;;;;;;;;;-5.10;98.89;101783.19;5010820;28;19943;-89
2022/01/12 06:51:03;;;;;;;;;;;;;;;-5.07;99.51;101779.91;5009857;28;19924;-89
2022/01/12 06:53:29;;;;;;;;;;;;;;;-5.07;98.85;101787.22;4993963;28;19909;-89
2022/01/12 06:55:55;;;;;;;;;;;;;;;-5.03;99.41;101799.88;4995846;28;19924;-89
2022/01/12 06:58:21;;;;;;;;;;;;;;;-4.98;99.33;101802.53;4995493;28;19971;-89
2022/01/12 07:00:47;;;;;;;;;;;;;;;-4.91;98.95;101821.13;4995193;28;19921;-89
2022/01/12 07:03:14;;;;;;;;;;;;;;;-4.88;99.00;101813.22;4983664;28;20370;-89
2022/01/12 07:05:47;;;;;;;;;;;;;;;-4.82;98.74;101812.06;4988786;28;19922;-89
2022/01/12 07:08:14;;;;;;;;;;;;;;;-4.75;98.53;101825.22;4966470;28;19918;-89
2022/01/12 07:10:41;;;;;;;;;;;;;;;-4.69;98.19;101821.38;4983217;28;19917;-89
2022/01/12 07:13:17;;;;;;;;;;;;;;;-4.64;97.90;101829.41;4999651;28;20570;-89
2022/01/12 07:15:45;;;;;;;;;;;;;;;-4.58;97.82;101827.44;4990570;28;20367;-89
2022/01/12 07:18:12;;;;;;;;;;;;;;;-4.55;97.73;101841.19;4994143;28;19937;-90
2022/01/12 07:20:38;;;;;;;;;;;;;;;-4.52;97.68;101845.22;4977852;28;19917;-90
2022/01/12 07:23:04;;;;;;;;;;;;;;;-4.50;97.34;101851.16;4993674;28;19917;-90
2022/01/12 07:25:29;;;;;;;;;;;;;;;-4.42;97.92;101837.78;4994037;28;19953;-91
2022/01/12 07:27:55;;;;;;;;;;;;;;;-4.39;97.26;101847.22;5012115;28;19917;-90
2022/01/12 07:30:24;;;;;;;;;;;;;;;-4.35;97.19;101854.47;5014885;28;19924;-89
2022/01/12 07:32:50;;;;;;;;;;;;;;;-4.29;96.99;101853.31;4998305;28;19992;-91
2022/01/12 07:35:15;;;;;;;;;;;;;;;-4.26;96.65;101854.59;4980990;28;20413;-89
2022/01/12 07:37:40;;;;;;;;;;;;;;;-4.19;96.60;101860.47;4979332;28;20377;-89
2022/01/12 07:40:07;;;;;;;;;;;;;;;-4.15;96.47;101858.78;4976442;28;20189;-90
2022/01/12 07:42:33;;;;;;;;;;;;;;;-4.07;96.76;101862.72;4998340;28;19936;-90
2022/01/12 07:45:04;;;;;;;;;;;;;;;-4.00;96.31;101877.50;4981834;28;19960;-90
2022/01/12 07:47:30;;;;;;;;;;;;;;;-4.03;95.79;101878.09;5014229;28;19960;-90
2022/01/12 07:49:56;;;;;;;;;;;;;;;-3.99;95.76;101878.31;4998244;28;20425;-90
2022/01/12 07:52:22;;;;;;;;;;;;;;;-3.92;95.15;101876.84;4995583;28;19917;-90
2022/01/12 07:54:47;;;;;;;;;;;;;;;-3.87;95.73;101884.91;4994907;28;19918;-90
2022/01/12 07:57:12;;;;;;;;;;;;;;;-3.85;95.03;101871.88;5013084;28;20382;-90
2022/01/12 07:59:38;;;;;;;;;;;;;;;-3.79;95.17;101878.00;4979199;28;19913;-91
2022/01/12 08:02:03;;;;;;;;;;;;;;;-3.71;94.95;101884.63;4996187;28;20338;-90
2022/01/12 08:04:29;;;;;;;;;;;;;;;-3.68;94.85;101889.50;4999098;28;19959;-89
2022/01/12 08:06:55;;;;;;;;;;;;;;;-3.61;94.58;101896.16;5014823;28;19924;-88
2022/01/12 08:09:21;;;;;;;;;;;;;;;-3.52;94.89;101891.66;5032634;28;20687;-90
2022/01/12 08:11:46;;;;;;;;;;;;;;;-3.45;94.64;101893.97;4990627;28;19988;-89
2022/01/12 08:14:12;;;;;;;;;;;;;;;-3.32;94.27;101904.06;5023216;28;19925;-91
2022/01/12 08:16:37;;;;;;;;;;;;;;;-3.20;94.16;101906.28;5033911;28;19968;-90
2022/01/12 08:19:03;;;;;;;;;;;;;;;-3.27;92.09;101901.22;5023887;28;19917;-89
2022/01/12 08:21:29;;;;;;;;;;;;;;;-3.37;92.25;101907.66;5032370;28;20386;-89
2022/01/12 08:23:55;;;;;;;;;;;;;;;-3.28;92.70;101906.97;5033604;28;20006;-91
2022/01/12 08:26:20;;;;;;;;;;;;;;;-3.17;93.04;101906.50;5007235;28;19968;-90
2022/01/12 08:28:45;;;;;;;;;;;;;;;-3.09;92.30;101908.50;4996256;28;19913;-91
2022/01/12 08:31:11;;;;;;;;;;;;;;;-2.96;92.06;101912.34;4979891;28;19917;-90
2022/01/12 08:33:36;;;;;;;;;;;;;;;-3.02;90.89;101913.53;4996339;28;19924;-89
2022/01/12 08:36:02;;;;;;;;;;;;;;;-3.15;90.75;101919.78;5013417;28;20012;-89
2022/01/12 08:38:27;;;;;;;;;;;;;;;-3.19;91.43;101929.63;4995762;28;19972;-89
2022/01/12 08:40:52;;;;;;;;;;;;;;;-3.21;91.73;101927.19;4995707;28;19964;-89
2022/01/12 08:43:18;;;;;;;;;;;;;;;-3.19;91.61;101926.91;4995602;28;19917;-88
2022/01/12 08:45:43;;;;;;;;;;;;;;;-3.06;91.87;101926.09;4996121;28;20381;-88
2022/01/12 08:48:09;;;;;;;;;;;;;;;-3.09;91.17;101924.81;4995795;28;19925;-88
2022/01/12 08:50:34;;;;;;;;;;;;;;;-3.09;91.09;101930.22;4995596;28;19921;-88
2022/01/12 08:52:59;;;;;;;;;;;;;;;-2.99;91.58;101923.81;4999609;28;19960;-86
2022/01/12 08:55:25;;;;;;;;;;;;;;;-2.93;90.77;101928.84;4999346;28;19917;-88
2022/01/12 08:57:51;;;;;;;;;;;;;;;-2.96;90.17;101925.94;5010643;28;19947;-88
2022/01/12 09:00:16;;;;;;;;;;;;;;;-2.92;89.69;101924.22;5012794;28;19920;-89
2022/01/12 09:02:42;;;;;;;;;;;;;;;-3.00;90.37;101923.00;5013746;28;19924;-88
2022/01/12 09:05:08;;;;;;;;;;;;;;;-2.93;90.47;101922.59;5013288;28;19970;-88
2022/01/12 09:07:34;;;;;;;;;;;;;;;-2.83;89.84;101920.47;4996623;28;19928;-88
2022/01/12 09:09:59;;;;;;;;;;;;;;;-2.73;89.79;101915.97;5014102;28;19956;-88
2022/01/12 09:12:25;;;;;;;;;;;;;;;-2.60;88.90;101910.53;5014644;28;19917;-92
2022/01/12 09:14:51;;;;;;;;;;;;;;;-2.61;88.18;101903.50;5013351;28;19920;-91
2022/01/12 09:17:18;;;;;;;;;;;;;;;-2.66;87.64;101911.72;5012995;28;19925;-90
2022/01/12 09:19:45;;;;;;;;;;;;;;;-2.65;88.47;101915.25;5013577;28;19917;-92
2022/01/12 09:22:10;;;;;;;;;;;;;;;-2.57;88.16;101914.56;5013295;28;19916;-91
2022/01/12 09:24:36;;;;;;;;;;;;;;;-2.43;88.12;101907.19;5014035;28;20529;-90
2022/01/12 09:27:01;;;;;;;;;;;;;;;-2.35;87.56;101911.94;5013587;28;20001;-92
2022/01/12 09:29:27;;;;;;;;;;;;;;;-2.36;86.54;101905.69;5014293;28;19924;-91
2022/01/12 09:31:52;;;;;;;;;;;;;;;-2.30;86.94;101900.91;5014799;28;19919;-86
2022/01/12 09:34:18;;;;;;;;;;;;;;;-2.37;86.68;101905.97;5031614;28;19917;-87
2022/01/12 09:36:43;;;;;;;;;;;;;;;-2.44;86.66;101900.97;5014416;28;19923;-87
2022/01/12 09:39:09;;;;;;;;;;;;;;;-2.49;86.45;101913.84;4997926;28;19917;-87
2022/01/12 09:41:34;;;;;;;;;;;;;;;-2.56;86.26;101911.53;5014616;28;20386;-87
2022/01/12 09:44:00;;;;;;;;;;;;;;;-2.55;86.50;101905.00;4997719;28;20377;-85
2022/01/12 09:46:26;;;;;;;;;;;;;;;-2.50;86.58;101909.50;5014750;28;19987;-86
2022/01/12 09:48:52;;;;;;;;;;;;;;;-2.47;87.06;101908.91;5008168;28;19917;-92
2022/01/12 09:51:17;;;;;;;;;;;;;;;-2.44;85.61;101909.13;5011938;28;19928;-86
2022/01/12 09:53:44;;;;;;;;;;;;;;;-2.45;85.93;101909.41;5030870;28;19966;-86
2022/01/12 09:56:21;;;;;;;;;;;;;;;-2.40;85.90;101912.03;5010477;28;20421;-86
2022/01/12 09:58:51;;;;;;;;;;;;;;;-2.24;85.35;101907.88;4988613;28;19921;-86
2022/01/12 10:01:27;;;;;;;;;;;;;;;-2.09;85.44;101899.38;5003948;28;20053;-85
2022/01/12 10:03:52;;;;;;;;;;;;;;;-1.94;84.56;101903.66;5012434;28;19971;-85
2022/01/12 10:06:18;;;;;;;;;;;;;;;-1.81;83.70;101910.94;5012964;28;19916;-85
2022/01/12 10:08:43;;;;;;;;;;;;;;;-1.69;81.98;101902.22;5013293;28;19943;-85
2022/01/12 10:11:09;;;;;;;;;;;;;;;-1.60;81.67;101897.66;5012994;28;19927;-85
2022/01/12 10:13:40;;;;;;;;;;;;;;;-1.48;81.23;101908.78;4996982;28;19963;-85
2022/01/12 10:16:20;;;;;;;;;;;;;;;-1.35;80.18;101901.66;5013117;28;19917;-85
2022/01/12 10:18:49;;;;;;;;;;;;;;;-1.24;80.27;101901.09;4992519;28;20379;-85
2022/01/12 10:21:28;;;;;;;;;;;;;;;-1.17;79.61;101895.97;5030234;28;19924;-84
2022/01/12 10:24:14;;;;;;;;;;;;;;;-1.35;79.23;101898.94;4992953;28;20043;-84
2022/01/12 10:26:43;;;;;;;;;;;;;;;-1.41;78.78;101899.06;5013120;28;19924;-85
2022/01/12 10:29:16;;;;;;;;;;;;;;;-1.44;79.77;101907.84;4996491;28;19988;-85
2022/01/12 10:32:01;;;;;;;;;;;;;;;-1.50;79.08;101903.66;5012701;28;19928;-84
2022/01/12 10:34:28;;;;;;;;;;;;;;;-1.51;79.82;101893.88;5010530;28;20424;-85
2022/01/12 10:36:54;;;;;;;;;;;;;;;-1.54;79.68;101893.72;5030315;28;19920;-85
2022/01/12 10:39:21;;;;;;;;;;;;;;;-1.53;79.77;101887.94;5029694;28;19924;-85
2022/01/12 10:41:56;;;;;;;;;;;;;;;-1.64;80.11;101910.28;4996475;28;20412;-84
2022/01/12 10:44:22;;;;;;;;;;;;;;;-1.63;80.05;101896.38;5027354;28;19921;-84
2022/01/12 10:46:48;;;;;;;;;;;;;;;-1.53;80.10;101901.53;4996289;28;20301;-87
2022/01/12 10:49:20;;;;;;;;;;;;;;;-1.50;80.16;101897.41;5015028;28;19921;-84
2022/01/12 10:51:53;;;;;;;;;;;;;;;-1.48;80.12;101887.81;5027955;28;19917;-84
2022/01/12 10:54:18;;;;;;;;;;;;;;;-1.43;79.62;101884.16;4987592;28;20083;-85
2022/01/12 10:56:44;;;;;;;;;;;;;;;-1.52;79.25;101886.84;5012384;28;19913;-85
2022/01/12 10:59:14;;;;;;;;;;;;;;;-1.67;80.07;101880.97;5029276;28;19929;-83
2022/01/12 11:01:40;;;;;;;;;;;;;;;-1.61;80.62;101887.88;5013460;28;19924;-84
2022/01/12 11:04:06;;;;;;;;;;;;;;;-1.48;80.07;101884.28;5015814;28;20426;-83
2022/01/12 11:06:31;;;;;;;;;;;;;;;-1.46;79.36;101869.28;5017440;28;20007;-83
2022/01/12 11:08:57;;;;;;;;;;;;;;;-1.50;79.38;101878.38;5033279;28;19956;-83
2022/01/12 11:11:24;;;;;;;;;;;;;;;-1.55;79.37;101875.75;5016430;28;19928;-83
2022/01/12 11:13:51;;;;;;;;;;;;;;;-1.51;80.43;101876.75;5016318;28;19939;-83
2022/01/12 11:16:24;;;;;;;;;;;;;;;-1.35;79.80;101872.53;5016364;28;19932;-83
2022/01/12 11:18:50;;;;;;;;;;;;;;;-1.24;78.88;101864.88;4991539;28;19918;-83
2022/01/12 11:21:32;;;;;;;;;;;;;;;-1.13;79.23;101869.72;5025644;28;19912;-83
2022/01/12 11:23:58;;;;;;;;;;;;;;;-1.00;78.53;101871.56;5015851;28;19939;-92
2022/01/12 11:26:28;;;;;;;;;;;;;;;-0.88;78.44;101861.97;4991744;28;20367;-83
2022/01/12 11:28:53;;;;;;;;;;;;;;;-0.73;78.52;101864.28;5024215;28;20304;-83
2022/01/12 11:31:26;;;;;;;;;;;;;;;-0.64;77.41;101860.44;5033089;28;20031;-83
2022/01/12 11:33:51;;;;;;;;;;;;;;;-0.56;76.93;101848.75;5015910;28;19927;-83
2022/01/12 11:36:28;;;;;;;;;;;;;;;-0.27;76.51;101850.06;4999342;28;20382;-83
2022/01/12 11:39:06;;;;;;;;;;;;;;;-0.10;74.82;101850.88;5033373;28;19928;-84
2022/01/12 11:41:33;;;;;;;;;;;;;;;0.10;73.67;101849.44;5014371;28;19917;-83
2022/01/12 11:44:03;;;;;;;;;;;;;;;0.35;72.53;101850.53;5015858;28;19920;-92
2022/01/12 11:46:39;;;;;;;;;;;;;;;0.52;71.42;101852.41;5017284;28;19917;-92
2022/01/12 11:49:05;;;;;;;;;;;;;;;0.55;71.48;101838.91;5016917;28;20290;-94
2022/01/12 11:51:33;;;;;;;;;;;;;;;0.79;70.40;101836.41;5034503;28;19942;-92
2022/01/12 11:54:00;;;;;;;;;;;;;;;0.93;70.12;101839.72;5014991;28;19925;-93
2022/01/12 11:56:26;;;;;;;;;;;;;;;0.90;69.52;101840.38;5016870;28;19924;-92
2022/01/12 11:58:59;;;;;;;;;;;;;;;0.87;69.93;101837.50;5016828;28;19924;-92
2022/01/12 12:01:25;;;;;;;;;;;;;;;1.13;69.23;101837.41;5017079;28;20321;-93
2022/01/12 12:03:57;;;;;;;;;;;;;;;1.42;69.59;101834.63;4998539;28;20306;-93
2022/01/12 12:06:22;;;;;;;;;;;;;;;1.67;68.64;101835.59;4993453;28;19917;-94
2022/01/12 12:09:00;;;;;;;;;;;;;;;1.59;67.60;101829.06;5035594;28;19917;-94
2022/01/12 12:11:28;;;;;;;;;;;;;;;1.71;66.55;101837.34;5014767;28;19921;-93
2022/01/12 12:13:53;;;;;;;;;;;;;;;1.68;67.01;101838.00;5030106;28;19996;-93
2022/01/12 12:16:19;;;;;;;;;;;;;;;1.32;66.62;101826.84;5034864;28;19944;-94
2022/01/12 12:18:44;;;;;;;;;;;;;;;0.81;67.85;101831.41;5016382;28;19921;-94
2022/01/12 12:21:09;;;;;;;;;;;;;;;0.97;68.70;101819.97;5017877;28;20438;-93
2022/01/12 12:23:36;;;;;;;;;;;;;;;1.08;69.17;101819.25;5018105;28;20298;-94
2022/01/12 12:26:05;;;;;;;;;;;;;;;1.37;68.38;101821.19;5026653;28;19925;-94
2022/01/12 12:28:30;;;;;;;;;;;;;;;1.42;67.28;101832.72;5006383;28;19963;-93
2022/01/12 12:30:56;;;;;;;;;;;;;;;1.29;66.23;101832.97;5034221;28;20275;-92
2022/01/12 12:33:23;;;;;;;;;;;;;;;0.98;67.15;101810.63;5018187;28;19927;-93
2022/01/12 12:35:49;;;;;;;;;;;;;;;0.85;67.64;101837.06;5018069;28;20393;-94
2022/01/12 12:38:15;;;;;;;;;;;;;;;0.73;68.53;101842.41;5001690;28;19921;-93
2022/01/12 12:40:48;;;;;;;;;;;;;;;0.69;68.41;101839.50;5001306;28;19913;-95
2022/01/12 12:43:21;;;;;;;;;;;;;;;0.69;68.67;101839.50;5018370;28;19924;-93
2022/01/12 12:45:49;;;;;;;;;;;;;;;0.65;69.28;101837.78;5038752;28;19995;-94
2022/01/12 12:48:19;;;;;;;;;;;;;;;0.70;68.82;101829.38;5039763;28;19960;-91
2022/01/12 12:50:44;;;;;;;;;;;;;;;0.64;68.88;101820.59;4987049;28;20302;-94
2022/01/12 12:53:10;;;;;;;;;;;;;;;0.73;69.20;101824.06;5006219;28;19928;-93
2022/01/12 12:55:37;;;;;;;;;;;;;;;0.88;68.84;101815.34;5007440;28;19963;-92
2022/01/12 12:58:03;;;;;;;;;;;;;;;0.79;67.89;101833.69;5008829;28;19917;-93
2022/01/12 13:00:28;;;;;;;;;;;;;;;0.65;68.38;101822.16;5002951;28;19920;-94
2022/01/12 13:02:54;;;;;;;;;;;;;;;0.74;69.19;101819.41;5016917;28;19924;-86
2022/01/12 13:05:24;;;;;;;;;;;;;;;0.90;68.41;101818.53;5013024;28;19925;-86
2022/01/12 13:07:50;;;;;;;;;;;;;;;1.07;67.59;101816.84;5013051;28;19960;-86
2022/01/12 13:10:17;;;;;;;;;;;;;;;1.09;67.44;101814.59;5014458;28;20054;-86
2022/01/12 13:12:43;;;;;;;;;;;;;;;1.15;66.69;101810.53;4997351;28;19917;-86
2022/01/12 13:15:11;;;;;;;;;;;;;;;1.30;67.24;101799.00;5013619;28;19917;-85
2022/01/12 13:17:39;;;;;;;;;;;;;;;1.34;66.85;101805.41;4991457;28;19932;-87
2022/01/12 13:22:38;;;;;;;;;;;;;;;1.33;66.62;101801.09;5002217;28;19925;-86
2022/01/12 13:25:08;;;;;;;;;;;;;;;1.34;66.15;101808.16;5014219;28;19913;-86
2022/01/12 13:27:34;;;;;;;;;;;;;;;1.50;65.63;101809.16;5007900;28;19924;-87
2022/01/12 13:29:59;;;;;;;;;;;;;;;1.29;65.55;101813.84;4990889;28;19917;-87
2022/01/12 13:32:26;;;;;;;;;;;;;;;0.80;66.21;101810.72;4979952;28;20432;-87
2022/01/12 13:34:55;;;;;;;;;;;;;;;0.59;67.56;101819.94;4988311;28;19918;-86
2022/01/12 13:37:21;;;;;;;;;;;;;;;0.36;68.26;101816.66;4995176;28;19925;-87
2022/01/12 13:39:48;;;;;;;;;;;;;;;0.21;68.96;101826.13;5014749;28;19917;-88
2022/01/12 13:42:13;;;;;;;;;;;;;;;0.11;69.65;101831.13;4997387;28;20271;-87
2022/01/12 13:44:39;;;;;;;;;;;;;;;0.29;69.79;101838.16;4997156;28;19913;-87
2022/01/12 13:47:11;;;;;;;;;;;;;;;0.49;69.79;101832.00;4995592;28;20006;-87
2022/01/12 13:49:36;;;;;;;;;;;;;;;0.37;69.26;101837.34;5014887;28;20043;-87
2022/01/12 13:52:03;;;;;;;;;;;;;;;0.41;70.12;101843.75;5013048;28;19920;-88
2022/01/12 13:54:29;;;;;;;;;;;;;;;0.59;69.38;101828.13;5012854;28;19917;-87
2022/01/12 13:56:55;;;;;;;;;;;;;;;0.59;68.89;101847.25;5000649;28;19924;-87